createdAt,value
2018-06-08T00:04:31.979Z,18.50
2018-06-08T00:07:36.407Z,18.50
2018-06-08T00:10:39.665Z,18.50
2018-06-08T00:16:46.022Z,18.50
2018-06-08T00:19:49.270Z,18.50
2018-06-08T00:22:52.446Z,18.70
2018-06-08T00:28:58.622Z,18.70
2018-06-08T00:32:01.806Z,18.70
2018-06-08T00:35:05.835Z,18.70
2018-06-08T00:41:12.023Z,18.70
2018-06-08T00:44:15.196Z,18.70
2018-06-08T00:47:18.470Z,18.60
2018-06-08T00:50:21.727Z,18.60
2018-06-08T00:53:24.961Z,18.50
2018-06-08T00:56:39.476Z,18.50
2018-06-08T00:59:42.641Z,18.50
2018-06-08T01:02:45.851Z,18.50
2018-06-08T01:08:52.061Z,18.60
2018-06-08T01:11:55.296Z,18.50
2018-06-08T01:14:58.509Z,18.50
2018-06-08T01:21:04.894Z,18.30
2018-06-08T01:24:08.132Z,18.20
2018-06-08T01:27:11.350Z,18.10
2018-06-08T01:30:14.547Z,18.00
2018-06-08T01:33:17.750Z,17.90
2018-06-08T01:36:20.951Z,17.80
2018-06-08T01:39:24.227Z,17.80
2018-06-08T01:42:27.521Z,17.90
2018-06-08T01:45:30.734Z,18.00
2018-06-08T01:48:33.913Z,17.90
2018-06-08T01:51:37.129Z,17.90
2018-06-08T01:54:40.302Z,17.80
2018-06-08T01:57:43.544Z,17.90
2018-06-08T02:00:46.677Z,17.80
2018-06-08T02:03:49.869Z,17.90
2018-06-08T02:06:53.163Z,17.90
2018-06-08T02:09:56.410Z,17.90
2018-06-08T02:12:59.602Z,18.00
2018-06-08T02:16:02.779Z,18.00
2018-06-08T02:19:05.950Z,18.00
2018-06-08T02:22:09.142Z,17.90
2018-06-08T02:25:12.314Z,18.00
2018-06-08T02:28:15.578Z,18.10
2018-06-08T02:34:21.826Z,18.10
2018-06-08T02:37:25.047Z,18.00
2018-06-08T02:40:28.254Z,17.90
2018-06-08T02:43:31.462Z,17.90
2018-06-08T02:46:34.753Z,17.80
2018-06-08T02:49:37.917Z,17.70
2018-06-08T02:52:41.127Z,17.60
2018-06-08T02:55:44.327Z,17.50
2018-06-08T03:01:50.405Z,17.30
2018-06-08T03:04:53.563Z,17.20
2018-06-08T03:07:56.828Z,17.20
2018-06-08T03:11:00.005Z,17.20
2018-06-08T03:14:03.250Z,17.20
2018-06-08T03:17:06.434Z,17.30
2018-06-08T03:20:09.734Z,17.40
2018-06-08T03:23:12.954Z,17.50
2018-06-08T03:26:16.260Z,17.50
2018-06-08T03:36:16.037Z,17.70
2018-06-08T03:39:19.243Z,17.80
2018-06-08T03:42:22.427Z,17.80
2018-06-08T03:45:25.581Z,17.80
2018-06-08T03:48:28.762Z,17.80
2018-06-08T03:51:31.962Z,17.80
2018-06-08T03:54:35.182Z,17.90
2018-06-08T03:57:38.372Z,18.00
2018-06-08T04:00:41.531Z,18.10
2018-06-08T04:03:44.703Z,18.30
2018-06-08T04:06:47.922Z,18.50
2018-06-08T04:09:51.253Z,18.60
2018-06-08T04:12:54.478Z,18.80
2018-06-08T04:15:57.702Z,18.80
2018-06-08T04:19:00.902Z,18.80
2018-06-08T04:22:04.166Z,18.90
2018-06-08T04:25:07.307Z,19.20
2018-06-08T04:28:10.610Z,19.50
2018-06-08T04:31:13.882Z,19.60
2018-06-08T04:34:17.161Z,19.50
2018-06-08T04:37:20.442Z,19.40
2018-06-08T04:40:23.682Z,19.40
2018-06-08T04:43:26.874Z,19.50
2018-06-08T04:46:30.046Z,19.70
2018-06-08T04:49:33.270Z,19.90
2018-06-08T04:52:36.496Z,20.20
2018-06-08T04:55:39.759Z,20.50
2018-06-08T04:58:43.042Z,20.80
2018-06-08T05:01:46.332Z,21.00
2018-06-08T05:04:49.518Z,21.20
2018-06-08T05:07:52.749Z,21.60
2018-06-08T05:10:55.942Z,21.80
2018-06-08T05:13:59.102Z,22.10
2018-06-08T05:17:02.325Z,22.60
2018-06-08T05:20:05.711Z,23.70
2018-06-08T05:23:08.910Z,24.90
2018-06-08T05:26:12.109Z,26.00
2018-06-08T05:29:15.294Z,27.40
2018-06-08T05:32:18.482Z,29.10
2018-06-08T05:35:21.687Z,30.80
2018-06-08T05:38:24.866Z,31.30
2018-06-08T05:41:28.076Z,30.60
2018-06-08T05:44:31.219Z,29.60
2018-06-08T05:47:34.374Z,28.60
2018-06-08T05:50:37.555Z,27.50
2018-06-08T05:53:40.792Z,26.60
2018-06-08T05:56:43.923Z,25.70
2018-06-08T05:59:47.136Z,25.10
2018-06-08T06:02:50.425Z,24.90
2018-06-08T06:05:53.594Z,24.70
2018-06-08T06:08:56.822Z,24.50
2018-06-08T06:11:59.975Z,24.30
2018-06-08T06:15:03.170Z,24.40
2018-06-08T06:18:06.369Z,24.50
2018-06-08T06:21:09.516Z,24.70
2018-06-08T06:24:12.715Z,25.00
2018-06-08T06:27:15.882Z,25.40
2018-06-08T06:30:19.199Z,26.10
2018-06-08T06:36:25.381Z,28.40
2018-06-08T06:39:28.525Z,29.70
2018-06-08T06:42:48.506Z,30.60
2018-06-08T06:45:51.576Z,31.00
2018-06-08T06:48:54.653Z,31.80
2018-06-08T06:51:59.782Z,32.70
2018-06-08T07:01:08.601Z,34.40
2018-06-08T07:04:11.685Z,34.80
2018-06-08T07:07:14.737Z,35.10
2018-06-08T07:10:17.861Z,35.40
2018-06-08T07:13:20.921Z,35.90
2018-06-08T07:16:24.006Z,36.00
2018-06-08T07:22:29.948Z,36.80
2018-06-08T07:25:33.017Z,36.90
2018-06-08T07:28:36.117Z,36.90
2018-06-08T07:31:39.225Z,36.90
2018-06-08T07:34:42.286Z,37.00
2018-06-08T07:37:45.350Z,37.10
2018-06-08T07:40:48.409Z,37.40
2018-06-08T07:43:51.477Z,37.40
2018-06-08T07:46:54.548Z,37.40
2018-06-08T07:49:57.619Z,37.40
2018-06-08T07:53:00.678Z,37.40
2018-06-08T07:56:03.762Z,37.40
2018-06-08T07:59:06.844Z,36.40
2018-06-08T08:02:09.914Z,36.30
2018-06-08T08:05:12.974Z,36.70
2018-06-08T08:08:16.039Z,37.10
2018-06-08T08:11:19.117Z,37.20
2018-06-08T08:14:22.199Z,36.90
2018-06-08T08:17:25.247Z,36.90
2018-06-08T08:20:28.344Z,37.20
2018-06-08T08:23:31.397Z,37.50
2018-06-08T08:29:37.344Z,37.80
2018-06-08T08:32:40.414Z,37.50
2018-06-08T08:35:44.504Z,37.00
2018-06-08T08:38:47.572Z,37.20
2018-06-08T08:41:50.654Z,37.00
2018-06-08T08:44:53.749Z,36.80
2018-06-08T08:47:56.802Z,36.90
2018-06-08T08:50:59.869Z,37.10
2018-06-08T08:54:02.937Z,36.80
2018-06-08T09:00:08.936Z,36.80
2018-06-08T09:03:12.001Z,36.70
2018-06-08T09:12:20.825Z,36.70
2018-06-08T09:15:23.906Z,36.50
2018-06-08T09:18:26.988Z,36.40
2018-06-08T09:21:30.059Z,35.90
2018-06-08T09:24:33.158Z,36.00
2018-06-08T09:27:36.274Z,36.00
2018-06-08T09:30:39.337Z,35.40
2018-06-08T09:33:42.456Z,34.90
2018-06-08T09:36:45.533Z,34.20
2018-06-08T09:39:48.612Z,33.90
2018-06-08T09:42:51.715Z,33.10
2018-06-08T09:45:54.809Z,32.60
2018-06-08T09:48:57.921Z,32.40
2018-06-08T09:52:00.984Z,31.90
2018-06-08T09:55:04.081Z,31.30
2018-06-08T09:58:07.280Z,30.90
2018-06-08T10:01:10.385Z,30.60
2018-06-08T10:04:13.465Z,30.70
2018-06-08T10:07:16.525Z,30.80
2018-06-08T10:10:19.585Z,30.50
2018-06-08T10:13:22.660Z,30.40
2018-06-08T10:16:25.736Z,29.80
2018-06-08T10:19:28.834Z,29.40
2018-06-08T10:22:31.926Z,29.30
2018-06-08T10:25:42.247Z,29.50
2018-06-08T10:28:45.329Z,29.60
2018-06-08T10:31:48.399Z,29.70
2018-06-08T10:34:51.470Z,29.60
2018-06-08T10:37:54.561Z,29.60
2018-06-08T10:40:57.643Z,29.60
2018-06-08T10:44:00.710Z,29.30
2018-06-08T10:47:03.780Z,29.10
2018-06-08T10:50:18.977Z,28.80
2018-06-08T10:53:22.062Z,28.90
2018-06-08T10:56:25.126Z,28.90
2018-06-08T11:02:31.096Z,29.00
2018-06-08T11:05:34.180Z,28.90
2018-06-08T11:08:37.273Z,29.00
2018-06-08T11:11:40.313Z,29.20
2018-06-08T11:14:43.409Z,29.20
2018-06-08T11:17:46.460Z,29.10
2018-06-08T11:26:55.307Z,29.30
2018-06-08T11:29:58.354Z,29.00
2018-06-08T11:33:01.422Z,29.00
2018-06-08T11:36:04.518Z,29.20
2018-06-08T11:39:08.131Z,29.40
2018-06-08T11:42:11.179Z,29.30
2018-06-08T11:48:17.109Z,29.10
2018-06-08T11:51:20.181Z,29.00
2018-06-08T11:54:23.270Z,29.10
2018-06-08T11:57:26.345Z,29.10
2018-06-08T12:00:29.414Z,29.10
2018-06-08T12:03:32.481Z,29.00
2018-06-08T12:06:35.546Z,29.00
2018-06-08T12:09:38.633Z,28.90
2018-06-08T12:12:41.713Z,29.00
2018-06-08T12:15:44.769Z,29.00
2018-06-08T12:18:47.839Z,28.90
2018-06-08T12:21:50.933Z,28.90
2018-06-08T12:24:54.023Z,29.00
2018-06-08T12:27:57.093Z,29.10
2018-06-08T12:31:00.158Z,29.10
2018-06-08T12:34:03.233Z,28.90
2018-06-08T12:37:07.005Z,28.60
2018-06-08T12:40:10.157Z,28.60
2018-06-08T12:43:13.241Z,28.60
2018-06-08T12:46:18.381Z,28.70
2018-06-08T12:49:21.449Z,28.80
2018-06-08T12:55:27.395Z,29.00
2018-06-08T12:58:30.473Z,29.20
2018-06-08T13:01:33.558Z,29.20
2018-06-08T13:04:36.649Z,29.20
2018-06-08T13:07:39.725Z,29.30
2018-06-08T13:10:42.800Z,29.10
2018-06-08T13:16:48.752Z,29.00
2018-06-08T13:23:38.609Z,29.00
2018-06-08T13:26:41.697Z,28.90
2018-06-08T13:29:44.753Z,29.00
2018-06-08T13:35:50.668Z,29.00
2018-06-08T13:38:53.725Z,29.00
2018-06-08T13:41:56.809Z,28.80
2018-06-08T13:48:02.722Z,28.60
2018-06-08T13:51:05.798Z,28.60
2018-06-08T13:54:08.853Z,28.60
2018-06-08T13:57:11.921Z,28.50
2018-06-08T14:00:14.981Z,28.60
2018-06-08T14:03:19.077Z,28.60
2018-06-08T14:06:22.175Z,28.70
2018-06-08T14:09:25.265Z,28.80
2018-06-08T14:15:31.184Z,28.70
2018-06-08T14:18:34.276Z,28.70
2018-06-08T14:21:37.354Z,28.60
2018-06-08T14:24:40.423Z,28.40
2018-06-08T14:27:43.513Z,28.40
2018-06-08T14:30:46.575Z,28.30
2018-06-08T14:36:52.515Z,28.40
2018-06-08T14:39:55.608Z,28.60
2018-06-08T14:42:58.692Z,28.70
2018-06-08T14:46:01.774Z,28.60
2018-06-08T14:49:04.869Z,28.40
2018-06-08T14:52:07.969Z,28.30
2018-06-08T14:55:11.054Z,28.40
2018-06-08T14:58:14.149Z,28.40
2018-06-08T15:01:17.241Z,28.50
2018-06-08T15:04:20.337Z,28.50
2018-06-08T15:07:23.429Z,28.60
2018-06-08T15:10:26.499Z,28.60
2018-06-08T15:13:29.580Z,28.60
2018-06-08T15:16:32.667Z,28.60
2018-06-08T15:19:35.769Z,28.50
2018-06-08T15:22:38.897Z,28.30
2018-06-08T15:25:41.973Z,28.20
2018-06-08T15:28:45.042Z,28.10
2018-06-08T15:31:48.109Z,28.00
2018-06-08T15:40:57.022Z,27.80
2018-06-08T15:44:00.117Z,27.70
2018-06-08T15:47:03.185Z,27.60
2018-06-08T15:50:06.269Z,27.50
2018-06-08T15:53:09.351Z,27.40
2018-06-08T15:56:12.414Z,27.20
2018-06-08T15:59:15.473Z,27.00
2018-06-08T16:02:18.558Z,26.70
2018-06-08T16:05:21.645Z,26.60
2018-06-08T16:08:24.729Z,26.50
2018-06-08T16:11:27.793Z,26.40
2018-06-08T16:14:30.878Z,26.30
2018-06-08T16:17:33.954Z,26.20
2018-06-08T16:20:37.039Z,26.10
2018-06-08T16:23:40.169Z,26.00
2018-06-08T16:26:43.259Z,25.90
2018-06-08T16:29:46.349Z,25.70
2018-06-08T16:32:49.441Z,25.60
2018-06-08T16:35:52.545Z,25.50
2018-06-08T16:38:55.653Z,25.40
2018-06-08T16:41:58.745Z,25.20
2018-06-08T16:45:01.825Z,25.10
2018-06-08T16:48:04.929Z,25.00
2018-06-08T16:51:08.017Z,24.90
2018-06-08T16:54:11.113Z,24.80
2018-06-08T16:57:14.206Z,24.70
2018-06-08T17:00:17.293Z,24.60
2018-06-08T17:03:20.376Z,24.60
2018-06-08T17:06:23.485Z,24.60
2018-06-08T17:09:26.577Z,24.60
2018-06-08T17:12:29.640Z,24.50
2018-06-08T17:15:32.734Z,24.40
2018-06-08T17:18:35.805Z,24.20
2018-06-08T17:21:38.917Z,24.20
2018-06-08T17:24:42.001Z,24.10
2018-06-08T17:27:45.062Z,24.10
2018-06-08T17:33:53.053Z,24.00
2018-06-08T17:36:56.531Z,24.00
2018-06-08T17:39:59.702Z,23.90
2018-06-08T17:43:02.793Z,23.90
2018-06-08T17:46:05.869Z,23.90
2018-06-08T17:52:12.742Z,23.70
2018-06-08T17:55:15.838Z,23.60
2018-06-08T17:58:26.020Z,23.50
2018-06-08T18:01:29.153Z,23.50
2018-06-08T18:04:34.452Z,23.40
2018-06-08T18:07:37.610Z,23.30
2018-06-08T18:10:40.759Z,23.30
2018-06-08T18:19:55.501Z,23.10
2018-06-08T18:22:58.677Z,23.10
2018-06-08T18:26:01.982Z,23.10
2018-06-08T18:29:05.046Z,23.00
2018-06-08T18:32:08.149Z,22.90
2018-06-08T18:35:11.245Z,22.90
2018-06-08T18:38:14.325Z,22.80
2018-06-08T18:41:17.409Z,22.80
2018-06-08T18:44:20.510Z,22.80
2018-06-08T18:47:23.617Z,22.70
2018-06-08T18:50:26.709Z,22.70
2018-06-08T18:53:29.829Z,22.60
2018-06-08T18:56:39.480Z,22.60
2018-06-08T18:59:42.556Z,22.50
2018-06-08T19:02:45.654Z,22.50
2018-06-08T19:05:51.422Z,22.50
2018-06-08T19:08:57.952Z,22.40
2018-06-08T19:12:05.019Z,22.40
2018-06-08T19:15:09.639Z,22.40
2018-06-08T19:18:12.975Z,22.30
2018-06-08T19:21:21.361Z,22.30
2018-06-08T19:24:24.425Z,22.30
2018-06-08T19:30:30.378Z,22.10
2018-06-08T19:33:33.457Z,22.10
2018-06-08T19:36:36.542Z,22.00
2018-06-08T19:39:39.633Z,21.90
2018-06-08T19:42:42.715Z,21.90
2018-06-08T19:45:45.793Z,21.90
2018-06-08T19:48:48.866Z,21.90
2018-06-08T19:51:51.956Z,21.80
2018-06-08T19:54:55.037Z,21.90
2018-06-08T20:01:00.981Z,21.80
2018-06-08T20:04:04.057Z,21.80
2018-06-08T20:07:07.142Z,21.70
2018-06-08T20:10:10.206Z,21.70
2018-06-08T20:13:13.293Z,21.70
2018-06-08T20:16:16.375Z,21.60
2018-06-08T20:19:19.485Z,21.60
2018-06-08T20:22:22.570Z,21.60
2018-06-08T20:25:25.673Z,21.50
2018-06-08T20:28:28.811Z,21.40
2018-06-08T20:31:31.946Z,21.40
2018-06-08T20:34:35.038Z,21.30
2018-06-08T20:37:38.130Z,21.30
2018-06-08T20:40:41.257Z,21.20
2018-06-08T20:43:44.322Z,21.20
2018-06-08T20:46:47.413Z,21.10
2018-06-08T20:49:50.521Z,21.10
2018-06-08T20:52:53.624Z,21.10
2018-06-08T20:55:56.709Z,21.10
2018-06-08T20:58:59.792Z,21.10
2018-06-08T21:02:02.887Z,21.00
2018-06-08T21:05:05.941Z,21.00
2018-06-08T21:08:09.057Z,20.90
2018-06-08T21:11:12.149Z,20.90
2018-06-08T21:14:15.269Z,20.80
2018-06-08T21:17:18.349Z,20.80
2018-06-08T21:20:21.457Z,20.80
2018-06-08T21:23:24.538Z,20.70
2018-06-08T21:26:27.612Z,20.70
2018-06-08T21:29:30.690Z,20.70
2018-06-08T21:32:33.806Z,20.60
2018-06-08T21:35:36.874Z,20.60
2018-06-08T21:38:39.970Z,20.50
2018-06-08T21:41:43.045Z,20.50
2018-06-08T21:44:46.137Z,20.50
2018-06-08T21:47:49.213Z,20.50
2018-06-08T21:50:52.288Z,20.60
2018-06-08T21:53:55.357Z,20.50
2018-06-08T21:56:58.453Z,20.50
2018-06-08T22:00:01.521Z,20.50
2018-06-08T22:03:04.617Z,20.40
2018-06-08T22:06:07.710Z,20.50
2018-06-08T22:09:10.798Z,20.40
2018-06-08T22:12:13.965Z,20.40
2018-06-08T22:15:17.038Z,20.30
2018-06-08T22:21:22.993Z,20.20
2018-06-08T22:24:26.085Z,20.20
2018-06-08T22:27:29.157Z,20.10
2018-06-08T22:30:32.245Z,20.10
2018-06-08T22:33:35.317Z,20.00
2018-06-08T22:36:38.386Z,20.00
2018-06-08T22:39:41.481Z,19.90
2018-06-08T22:42:44.560Z,19.90
2018-06-08T22:45:47.645Z,19.90
2018-06-08T22:48:50.733Z,20.00
2018-06-08T22:51:53.808Z,19.90
2018-06-08T22:54:56.869Z,19.90
2018-06-08T22:57:59.990Z,20.00
2018-06-08T23:01:03.254Z,19.90
2018-06-08T23:04:06.442Z,20.00
2018-06-08T23:07:09.636Z,19.90
2018-06-08T23:10:12.843Z,19.90
2018-06-08T23:13:16.026Z,19.80
2018-06-08T23:16:19.250Z,19.80
2018-06-08T23:19:22.469Z,19.80
2018-06-08T23:22:25.713Z,19.70
2018-06-08T23:25:28.946Z,19.70
2018-06-08T23:37:41.132Z,19.60
2018-06-08T23:43:47.420Z,19.60
2018-06-08T23:49:53.779Z,19.50
2018-06-08T23:55:59.933Z,19.40
2018-06-08T23:59:03.142Z,19.40
